createdAt,value
2023-04-23T00:00:56.346Z,57.48
2023-04-23T00:01:56.522Z,57.37
2023-04-23T00:02:56.752Z,57.37
2023-04-23T00:03:56.948Z,57.37
2023-04-23T00:04:57.058Z,57.48
2023-04-23T00:05:57.263Z,57.48
2023-04-23T00:06:57.431Z,57.58
2023-04-23T00:07:57.566Z,57.71
2023-04-23T00:08:57.818Z,57.58
2023-04-23T00:09:57.979Z,57.60
2023-04-23T00:10:58.144Z,57.71
2023-04-23T00:11:58.306Z,58.11
2023-04-23T00:12:59.337Z,57.81
2023-04-23T00:13:58.651Z,57.91
2023-04-23T00:14:58.782Z,57.81
2023-04-23T00:15:58.997Z,58.11
2023-04-23T00:16:59.146Z,58.11
2023-04-23T00:17:59.396Z,58.11
2023-04-23T00:18:59.495Z,58.22
2023-04-23T00:19:59.628Z,58.42
2023-04-23T00:20:59.799Z,58.42
2023-04-23T00:21:59.958Z,58.31
2023-04-23T00:23:00.088Z,58.72
2023-04-23T00:24:00.389Z,58.52
2023-04-23T00:25:00.596Z,58.62
2023-04-23T00:26:00.736Z,58.92
2023-04-23T00:27:00.910Z,58.72
2023-04-23T00:28:01.062Z,58.82
2023-04-23T00:29:01.193Z,58.62
2023-04-23T00:30:01.354Z,58.62
2023-04-23T00:31:01.516Z,58.82
2023-04-23T00:32:01.717Z,58.82
2023-04-23T00:33:02.075Z,58.92
2023-04-23T00:34:02.019Z,58.92
2023-04-23T00:35:02.143Z,58.82
2023-04-23T00:36:02.424Z,58.72
2023-04-23T00:37:02.578Z,59.12
2023-04-23T00:38:02.721Z,58.82
2023-04-23T00:39:02.877Z,59.23
2023-04-23T00:40:03.046Z,59.12
2023-04-23T00:41:03.185Z,58.72
2023-04-23T00:42:03.367Z,58.82
2023-04-23T00:43:03.510Z,58.72
2023-04-23T00:44:03.780Z,58.82
2023-04-23T00:45:03.925Z,58.92
2023-04-23T00:46:04.173Z,58.92
2023-04-23T00:47:04.320Z,59.03
2023-04-23T00:48:04.465Z,58.92
2023-04-23T00:49:04.622Z,59.23
2023-04-23T00:50:04.771Z,59.23
2023-04-23T00:51:04.922Z,59.43
2023-04-23T00:52:05.085Z,59.33
2023-04-23T00:53:05.233Z,60.04
2023-04-23T00:54:05.382Z,59.43
2023-04-23T00:55:05.534Z,59.36
2023-04-23T00:56:05.667Z,59.23
2023-04-23T00:57:05.829Z,59.56
2023-04-23T00:58:05.976Z,59.56
2023-04-23T00:59:06.121Z,59.56
2023-04-23T01:00:06.256Z,59.56
2023-04-23T01:01:06.436Z,59.43
2023-04-23T01:02:06.801Z,59.56
2023-04-23T01:03:06.940Z,59.56
2023-04-23T01:04:07.285Z,59.77
2023-04-23T01:05:07.255Z,59.66
2023-04-23T01:06:07.517Z,59.66
2023-04-23T01:07:07.687Z,59.66
2023-04-23T01:08:07.850Z,59.77
2023-04-23T01:09:07.986Z,59.77
2023-04-23T01:10:08.137Z,59.86
2023-04-23T01:11:08.289Z,59.66
2023-04-23T01:12:08.445Z,59.77
2023-04-23T01:13:08.592Z,60.17
2023-04-23T01:14:08.824Z,59.77
2023-04-23T01:15:09.114Z,59.86
2023-04-23T01:16:09.208Z,60.04
2023-04-23T01:17:09.494Z,60.68
2023-04-23T01:18:09.559Z,60.55
2023-04-23T01:19:09.684Z,60.04
2023-04-23T01:20:09.963Z,60.58
2023-04-23T01:21:10.114Z,61.97
2023-04-23T01:22:10.264Z,60.78
2023-04-23T01:23:10.426Z,60.98
2023-04-23T01:24:10.560Z,61.39
2023-04-23T01:25:10.698Z,60.78
2023-04-23T01:26:10.873Z,61.08
2023-04-23T01:27:11.015Z,61.18
2023-04-23T01:28:11.135Z,61.18
2023-04-23T01:29:11.301Z,61.18
2023-04-23T01:30:11.448Z,61.39
2023-04-23T01:31:11.711Z,61.39
2023-04-23T01:32:11.858Z,61.18
2023-04-23T01:33:12.003Z,61.08
2023-04-23T01:34:12.148Z,61.29
2023-04-23T01:35:12.303Z,61.05
2023-04-23T01:36:12.465Z,61.16
2023-04-23T01:37:12.689Z,61.25
2023-04-23T01:38:12.813Z,61.46
2023-04-23T01:39:12.961Z,61.97
2023-04-23T01:40:13.100Z,61.56
2023-04-23T01:41:13.364Z,61.97
2023-04-23T01:42:13.530Z,62.27
2023-04-23T01:43:13.673Z,62.37
2023-04-23T01:44:13.840Z,63.29
2023-04-23T01:45:14.013Z,62.78
2023-04-23T01:46:14.137Z,65.72
2023-04-23T01:47:14.406Z,64.20
2023-04-23T01:48:14.550Z,63.59
2023-04-23T01:49:14.813Z,64.30
2023-04-23T01:50:14.951Z,64.23
2023-04-23T01:51:15.130Z,65.14
2023-04-23T01:52:15.306Z,66.05
2023-04-23T01:53:15.445Z,65.24
2023-04-23T01:54:15.579Z,66.26
2023-04-23T01:55:15.848Z,67.38
2023-04-23T01:56:15.988Z,67.68
2023-04-23T01:57:16.266Z,69.00
2023-04-23T01:58:16.401Z,67.61
2023-04-23T01:59:16.551Z,70.15
2023-04-23T02:00:16.716Z,70.86
2023-04-23T02:01:16.866Z,71.97
2023-04-23T02:02:17.045Z,73.74
2023-04-23T02:03:17.312Z,76.68
2023-04-23T02:04:17.564Z,76.51
2023-04-23T02:05:17.609Z,79.36
2023-04-23T02:06:18.745Z,80.92
2023-04-23T02:07:18.054Z,82.04
2023-04-23T02:08:18.210Z,82.48
2023-04-23T02:09:18.363Z,83.84
2023-04-23T02:10:18.519Z,83.74
2023-04-23T02:11:18.680Z,84.97
2023-04-23T02:12:18.828Z,85.11
2023-04-23T02:13:18.981Z,86.94
2023-04-23T02:14:19.108Z,86.83
2023-04-23T02:15:19.407Z,87.24
2023-04-23T02:16:19.598Z,87.55
2023-04-23T02:17:19.721Z,87.65
2023-04-23T02:18:19.866Z,88.46
2023-04-23T02:19:20.120Z,89.28
2023-04-23T02:20:20.278Z,89.48
2023-04-23T02:21:20.472Z,89.18
2023-04-23T02:22:20.714Z,89.07
2023-04-23T02:23:20.898Z,89.38
2023-04-23T02:24:21.028Z,90.09
2023-04-23T02:25:21.314Z,89.99
2023-04-23T02:26:21.463Z,91.62
2023-04-23T02:27:21.721Z,91.83
2023-04-23T02:28:21.916Z,90.50
2023-04-23T02:29:22.047Z,90.40
2023-04-23T02:30:22.196Z,90.50
2023-04-23T02:31:22.479Z,90.86
2023-04-23T02:32:22.694Z,91.17
2023-04-23T02:33:22.831Z,90.25
2023-04-23T02:34:23.053Z,90.16
2023-04-23T02:35:23.365Z,90.66
2023-04-23T02:36:23.469Z,90.86
2023-04-23T02:37:23.748Z,90.05
2023-04-23T02:38:23.876Z,90.36
2023-04-23T02:39:24.162Z,90.97
2023-04-23T02:40:24.299Z,91.38
2023-04-23T02:41:24.586Z,90.97
2023-04-23T02:42:24.736Z,89.34
2023-04-23T02:43:24.928Z,89.14
2023-04-23T02:44:25.064Z,89.85
2023-04-23T02:45:25.332Z,89.34
2023-04-23T02:46:25.564Z,89.75
2023-04-23T02:47:25.738Z,90.16
2023-04-23T02:48:25.869Z,89.95
2023-04-23T02:49:26.153Z,90.66
2023-04-23T02:50:26.284Z,91.23
2023-04-23T02:51:26.434Z,91.13
2023-04-23T02:52:26.601Z,90.66
2023-04-23T02:53:26.857Z,91.07
2023-04-23T02:54:27.019Z,92.04
2023-04-23T02:55:27.180Z,91.03
2023-04-23T02:56:27.329Z,92.55
2023-04-23T02:57:27.559Z,91.53
2023-04-23T02:58:27.709Z,91.53
2023-04-23T02:59:27.904Z,92.04
2023-04-23T03:00:28.121Z,92.04
2023-04-23T03:01:28.385Z,91.94
2023-04-23T03:02:28.654Z,91.84
2023-04-23T03:03:28.944Z,92.35
2023-04-23T03:04:28.932Z,91.43
2023-04-23T03:05:29.207Z,91.94
2023-04-23T03:06:29.427Z,91.13
2023-04-23T03:07:29.680Z,92.04
2023-04-23T03:08:30.051Z,91.23
2023-04-23T03:09:30.067Z,90.52
2023-04-23T03:10:30.223Z,91.53
2023-04-23T03:11:30.389Z,90.99
2023-04-23T03:12:30.536Z,90.07
2023-04-23T03:13:30.740Z,91.09
2023-04-23T03:14:30.910Z,89.76
2023-04-23T03:15:31.073Z,89.36
2023-04-23T03:16:31.284Z,89.66
2023-04-23T03:17:31.449Z,89.56
2023-04-23T03:18:31.588Z,89.97
2023-04-23T03:19:31.747Z,89.46
2023-04-23T03:20:31.928Z,89.46
2023-04-23T03:21:32.131Z,89.76
2023-04-23T03:22:32.284Z,90.27
2023-04-23T03:23:32.465Z,91.29
2023-04-23T03:24:32.626Z,89.97
2023-04-23T03:25:32.791Z,88.54
2023-04-23T03:26:32.974Z,88.50
2023-04-23T03:27:33.130Z,87.59
2023-04-23T03:28:33.285Z,87.99
2023-04-23T03:29:33.436Z,87.99
2023-04-23T03:30:33.687Z,87.99
2023-04-23T03:31:33.764Z,87.79
2023-04-23T03:32:33.977Z,88.81
2023-04-23T03:33:34.145Z,88.20
2023-04-23T03:34:34.302Z,87.79
2023-04-23T03:35:34.472Z,88.20
2023-04-23T03:36:34.627Z,87.29
2023-04-23T03:37:34.819Z,88.30
2023-04-23T03:38:34.946Z,87.18
2023-04-23T03:39:35.203Z,87.59
2023-04-23T03:40:35.372Z,87.38
2023-04-23T03:41:35.519Z,87.29
2023-04-23T03:42:35.698Z,86.88
2023-04-23T03:43:35.875Z,87.18
2023-04-23T03:44:36.044Z,88.10
2023-04-23T03:45:36.203Z,86.98
2023-04-23T03:46:36.420Z,88.30
2023-04-23T03:47:36.602Z,87.59
2023-04-23T03:48:36.726Z,87.89
2023-04-23T03:49:36.878Z,87.29
2023-04-23T03:50:37.036Z,87.99
2023-04-23T03:51:37.198Z,87.79
2023-04-23T03:52:37.368Z,87.49
2023-04-23T03:53:37.529Z,87.29
2023-04-23T03:54:37.737Z,87.99
2023-04-23T03:55:37.879Z,88.50
2023-04-23T03:56:38.030Z,88.50
2023-04-23T03:57:38.316Z,87.89
2023-04-23T03:58:38.504Z,87.89
2023-04-23T03:59:38.648Z,87.79
2023-04-23T04:00:38.805Z,87.29
2023-04-23T04:01:39.071Z,87.59
2023-04-23T04:02:39.304Z,86.77
2023-04-23T04:03:39.695Z,86.98
2023-04-23T04:04:39.863Z,87.45
2023-04-23T04:05:39.854Z,88.56
2023-04-23T04:06:39.989Z,89.31
2023-04-23T04:07:40.173Z,89.83
2023-04-23T04:08:40.344Z,90.03
2023-04-23T04:09:40.509Z,91.05
2023-04-23T04:10:40.647Z,91.09
2023-04-23T04:11:40.906Z,90.88
2023-04-23T04:12:41.060Z,91.39
2023-04-23T04:13:41.247Z,90.99
2023-04-23T04:14:41.623Z,91.19
2023-04-23T04:15:41.609Z,91.69
2023-04-23T04:16:41.764Z,91.39
2023-04-23T04:17:42.012Z,91.49
2023-04-23T04:18:42.120Z,91.69
2023-04-23T04:19:42.266Z,91.09
2023-04-23T04:20:42.434Z,91.39
2023-04-23T04:21:42.626Z,91.09
2023-04-23T04:22:42.799Z,91.29
2023-04-23T04:23:42.965Z,91.80
2023-04-23T04:24:43.483Z,91.29
2023-04-23T04:25:43.405Z,92.00
2023-04-23T04:26:43.573Z,91.90
2023-04-23T04:27:43.772Z,92.00
2023-04-23T04:28:44.132Z,92.00
2023-04-23T04:29:44.097Z,91.19
2023-04-23T04:30:44.269Z,91.19
2023-04-23T04:31:44.481Z,92.57
2023-04-23T04:32:44.660Z,92.67
2023-04-23T04:33:44.819Z,91.86
2023-04-23T04:34:45.003Z,91.14
2023-04-23T04:35:45.384Z,91.55
2023-04-23T04:36:45.474Z,91.45
2023-04-23T04:37:45.652Z,91.86
2023-04-23T04:38:45.811Z,91.75
2023-04-23T04:39:45.967Z,91.25
2023-04-23T04:40:46.111Z,91.45
2023-04-23T04:41:46.411Z,91.55
2023-04-23T04:42:46.546Z,91.45
2023-04-23T04:43:46.702Z,91.55
2023-04-23T04:44:46.843Z,91.35
2023-04-23T04:45:47.012Z,91.35
2023-04-23T04:46:47.250Z,91.86
2023-04-23T04:47:47.402Z,92.36
2023-04-23T04:48:47.506Z,91.25
2023-04-23T04:49:47.660Z,91.55
2023-04-23T04:50:47.819Z,92.67
2023-04-23T04:51:47.966Z,92.77
2023-04-23T04:52:48.120Z,92.36
2023-04-23T04:53:48.273Z,92.26
2023-04-23T04:54:48.404Z,92.97
2023-04-23T04:55:48.671Z,92.97
2023-04-23T04:56:48.827Z,92.67
2023-04-23T04:57:48.985Z,92.51
2023-04-23T04:58:49.136Z,93.02
2023-04-23T04:59:49.450Z,93.18
2023-04-23T05:00:50.207Z,93.28
2023-04-23T05:01:49.771Z,93.79
2023-04-23T05:02:50.054Z,93.89
2023-04-23T05:03:50.236Z,93.18
2023-04-23T05:04:50.263Z,93.07
2023-04-23T05:05:57.477Z,93.07
2023-04-23T05:06:50.605Z,92.67
2023-04-23T05:07:50.773Z,92.67
2023-04-23T05:08:51.710Z,92.87
2023-04-23T05:09:51.181Z,92.57
2023-04-23T05:10:51.332Z,92.87
2023-04-23T05:11:51.471Z,92.47
2023-04-23T05:12:51.642Z,92.72
2023-04-23T05:13:51.793Z,92.83
2023-04-23T05:14:53.043Z,92.52
2023-04-23T05:15:52.101Z,92.32
2023-04-23T05:16:52.380Z,92.12
2023-04-23T05:17:52.595Z,91.82
2023-04-23T05:18:52.738Z,91.71
2023-04-23T05:19:52.924Z,90.90
2023-04-23T05:20:53.056Z,90.80
2023-04-23T05:21:53.298Z,90.90
2023-04-23T05:22:53.481Z,91.61
2023-04-23T05:23:53.630Z,91.47
2023-04-23T05:24:53.766Z,91.30
2023-04-23T05:25:54.519Z,91.71
2023-04-23T05:26:54.185Z,91.71
2023-04-23T05:27:54.375Z,91.97
2023-04-23T05:28:54.548Z,91.91
2023-04-23T05:29:54.711Z,91.61
2023-04-23T05:30:54.871Z,91.51
2023-04-23T05:31:55.060Z,91.71
2023-04-23T05:32:55.245Z,91.91
2023-04-23T05:33:55.499Z,91.82
2023-04-23T05:34:55.664Z,92.32
2023-04-23T05:35:56.813Z,92.52
2023-04-23T05:36:56.024Z,92.63
2023-04-23T05:37:56.212Z,91.71
2023-04-23T05:38:56.401Z,92.83
2023-04-23T05:39:56.536Z,93.03
2023-04-23T05:40:56.675Z,93.44
2023-04-23T05:41:56.817Z,93.44
2023-04-23T05:42:57.132Z,93.68
2023-04-23T05:43:57.292Z,94.66
2023-04-23T05:44:57.625Z,94.66
2023-04-23T05:45:57.764Z,94.35
2023-04-23T05:46:57.895Z,94.35
2023-04-23T05:47:58.214Z,93.74
2023-04-23T05:48:58.483Z,93.54
2023-04-23T05:49:58.451Z,93.74
2023-04-23T05:50:58.756Z,93.64
2023-04-23T05:51:58.761Z,93.33
2023-04-23T05:52:59.049Z,94.71
2023-04-23T05:53:59.227Z,93.60
2023-04-23T05:54:59.362Z,93.40
2023-04-23T05:55:59.548Z,93.09
2023-04-23T05:56:59.688Z,93.49
2023-04-23T05:57:59.897Z,93.40
2023-04-23T05:59:00.038Z,93.19
2023-04-23T06:00:00.189Z,93.49
2023-04-23T06:01:00.406Z,93.40
2023-04-23T06:02:00.569Z,93.29
2023-04-23T06:03:00.891Z,93.19
2023-04-23T06:04:01.121Z,93.29
2023-04-23T06:05:01.393Z,93.09
2023-04-23T06:06:01.323Z,93.40
2023-04-23T06:07:01.470Z,93.29
2023-04-23T06:08:01.651Z,93.70
2023-04-23T06:09:01.807Z,93.60
2023-04-23T06:10:01.951Z,94.26
2023-04-23T06:11:02.137Z,94.26
2023-04-23T06:12:02.279Z,93.25
2023-04-23T06:13:02.436Z,93.19
2023-04-23T06:14:02.617Z,93.15
2023-04-23T06:15:02.788Z,93.65
2023-04-23T06:16:03.007Z,93.65
2023-04-23T06:17:03.162Z,93.86
2023-04-23T06:18:03.451Z,93.55
2023-04-23T06:19:03.758Z,93.25
2023-04-23T06:20:03.802Z,93.65
2023-04-23T06:21:03.968Z,93.15
2023-04-23T06:22:04.128Z,93.00
2023-04-23T06:23:04.265Z,93.10
2023-04-23T06:24:04.381Z,93.91
2023-04-23T06:25:04.599Z,92.70
2023-04-23T06:26:04.696Z,92.54
2023-04-23T06:27:04.864Z,92.94
2023-04-23T06:28:05.010Z,93.55
2023-04-23T06:29:05.135Z,93.65
2023-04-23T06:30:05.515Z,93.25
2023-04-23T06:31:05.457Z,92.74
2023-04-23T06:32:05.591Z,92.64
2023-04-23T06:33:05.904Z,93.05
2023-04-23T06:34:05.914Z,93.00
2023-04-23T06:35:06.315Z,92.90
2023-04-23T06:36:06.270Z,92.19
2023-04-23T06:37:06.427Z,92.70
2023-04-23T06:38:06.581Z,92.70
2023-04-23T06:39:06.739Z,92.40
2023-04-23T06:40:06.996Z,92.09
2023-04-23T06:41:07.071Z,92.29
2023-04-23T06:42:07.197Z,92.80
2023-04-23T06:43:07.364Z,93.15
2023-04-23T06:44:07.501Z,93.35
2023-04-23T06:45:07.679Z,93.35
2023-04-23T06:46:07.877Z,93.45
2023-04-23T06:47:08.136Z,93.86
2023-04-23T06:48:08.302Z,93.96
2023-04-23T06:49:08.415Z,93.86
2023-04-23T06:50:08.646Z,93.96
2023-04-23T06:51:08.749Z,93.86
2023-04-23T06:52:08.884Z,94.06
2023-04-23T06:53:09.050Z,93.86
2023-04-23T06:54:09.206Z,94.17
2023-04-23T06:55:09.330Z,93.90
2023-04-23T06:56:09.447Z,94.51
2023-04-23T06:57:09.621Z,94.61
2023-04-23T06:58:09.785Z,95.12
2023-04-23T06:59:09.945Z,95.12
2023-04-23T07:00:10.080Z,95.73
2023-04-23T07:01:10.237Z,96.44
2023-04-23T07:02:10.402Z,96.69
2023-04-23T07:03:10.658Z,96.69
2023-04-23T07:04:10.807Z,97.30
2023-04-23T07:05:10.951Z,97.71
2023-04-23T07:06:11.094Z,97.60
2023-04-23T07:07:11.250Z,97.80
2023-04-23T07:08:11.411Z,98.46
2023-04-23T07:09:11.575Z,98.77
2023-04-23T07:10:11.718Z,99.17
2023-04-23T07:11:12.003Z,99.27
2023-04-23T07:12:12.187Z,99.58
2023-04-23T07:13:14.022Z,99.88
2023-04-23T07:14:12.956Z,99.78
2023-04-23T07:15:12.803Z,99.99
2023-04-23T07:16:12.950Z,99.99
2023-04-23T07:17:13.168Z,99.99
2023-04-23T07:18:13.328Z,99.99
2023-04-23T07:19:13.497Z,99.99
2023-04-23T07:20:13.683Z,99.99
2023-04-23T07:21:13.862Z,99.99
2023-04-23T07:22:14.115Z,99.99
2023-04-23T07:23:14.385Z,99.99
2023-04-23T07:24:14.516Z,99.99
2023-04-23T07:25:14.681Z,99.99
2023-04-23T07:26:14.832Z,99.99
2023-04-23T07:27:15.135Z,99.99
2023-04-23T07:28:15.322Z,99.99
2023-04-23T07:29:15.492Z,99.99
2023-04-23T07:30:15.682Z,99.99
2023-04-23T07:31:15.841Z,99.99
2023-04-23T07:32:15.997Z,99.99
2023-04-23T07:33:16.772Z,99.99
2023-04-23T07:34:16.349Z,99.99
2023-04-23T07:35:16.872Z,99.99
2023-04-23T07:36:16.832Z,99.99
2023-04-23T07:37:17.004Z,99.99
2023-04-23T07:38:17.181Z,99.99
2023-04-23T07:39:17.350Z,99.99
2023-04-23T07:40:17.483Z,99.99
2023-04-23T07:41:17.861Z,99.99
2023-04-23T07:42:17.908Z,99.99
2023-04-23T07:43:18.105Z,99.99
2023-04-23T07:44:18.257Z,99.99
2023-04-23T07:45:18.410Z,99.99
2023-04-23T07:46:18.570Z,99.99
2023-04-23T07:47:18.741Z,99.99
2023-04-23T07:48:18.902Z,99.99
2023-04-23T07:49:19.072Z,99.99
2023-04-23T07:50:19.282Z,99.99
2023-04-23T07:51:19.458Z,99.99
2023-04-23T07:52:19.631Z,99.99
2023-04-23T07:53:19.865Z,99.99
2023-04-23T07:54:20.035Z,99.99
2023-04-23T07:55:20.205Z,99.99
2023-04-23T07:56:20.372Z,99.99
2023-04-23T07:57:20.523Z,99.99
2023-04-23T07:58:20.682Z,99.99
2023-04-23T07:59:20.858Z,99.99
2023-04-23T08:00:21.033Z,99.99
2023-04-23T08:01:21.178Z,99.99
2023-04-23T08:02:21.395Z,99.99
2023-04-23T08:03:21.763Z,99.99
2023-04-23T08:04:22.198Z,99.99
2023-04-23T08:05:21.980Z,99.99
2023-04-23T08:06:22.267Z,99.99
2023-04-23T08:07:22.339Z,99.99
2023-04-23T08:08:22.570Z,99.99
2023-04-23T08:09:22.722Z,99.99
2023-04-23T08:10:22.893Z,99.99
2023-04-23T08:11:23.060Z,99.99
2023-04-23T08:12:23.223Z,99.99
2023-04-23T08:13:23.419Z,99.99
2023-04-23T08:14:23.560Z,99.99
2023-04-23T08:15:23.884Z,99.99
2023-04-23T08:16:24.174Z,99.99
2023-04-23T08:17:24.166Z,99.99
2023-04-23T08:18:24.316Z,99.99
2023-04-23T08:19:24.463Z,99.99
2023-04-23T08:20:24.620Z,99.99
2023-04-23T08:21:24.958Z,99.99
2023-04-23T08:22:25.018Z,99.99
2023-04-23T08:23:25.161Z,99.99
2023-04-23T08:24:25.300Z,99.99
2023-04-23T08:25:25.546Z,99.99
2023-04-23T08:26:25.672Z,99.99
2023-04-23T08:27:25.854Z,99.99
2023-04-23T08:28:25.990Z,99.80
2023-04-23T08:29:26.171Z,99.49
2023-04-23T08:30:26.336Z,99.24
2023-04-23T08:31:27.447Z,98.74
2023-04-23T08:32:26.675Z,98.13
2023-04-23T08:33:26.800Z,98.03
2023-04-23T08:34:26.970Z,97.11
2023-04-23T08:35:27.116Z,97.42
2023-04-23T08:36:27.267Z,97.38
2023-04-23T08:37:31.338Z,96.36
2023-04-23T08:38:27.643Z,97.73
2023-04-23T08:39:27.792Z,96.11
2023-04-23T08:40:27.936Z,95.86
2023-04-23T08:41:28.103Z,95.86
2023-04-23T08:42:28.272Z,94.45
2023-04-23T08:43:28.428Z,94.04
2023-04-23T08:44:28.577Z,93.88
2023-04-23T08:45:28.772Z,95.50
2023-04-23T08:46:28.965Z,95.61
2023-04-23T08:47:29.113Z,95.50
2023-04-23T08:48:29.273Z,95.81
2023-04-23T08:49:29.432Z,96.22
2023-04-23T08:50:29.573Z,95.35
2023-04-23T08:51:29.734Z,95.04
2023-04-23T08:52:29.859Z,95.25
2023-04-23T08:53:30.021Z,95.19
2023-04-23T08:54:30.171Z,95.70
2023-04-23T08:55:30.328Z,95.70
2023-04-23T08:56:30.464Z,95.90
2023-04-23T08:57:30.609Z,95.59
2023-04-23T08:58:30.767Z,96.15
2023-04-23T08:59:30.928Z,97.16
2023-04-23T09:00:31.147Z,97.62
2023-04-23T09:01:31.304Z,98.38
2023-04-23T09:02:31.541Z,97.87
2023-04-23T09:03:31.795Z,98.07
2023-04-23T09:04:31.865Z,98.32
2023-04-23T09:05:32.028Z,98.43
2023-04-23T09:06:33.136Z,98.83
2023-04-23T09:07:32.409Z,98.63
2023-04-23T09:08:32.575Z,99.04
2023-04-23T09:09:32.732Z,99.38
2023-04-23T09:10:32.918Z,99.64
2023-04-23T09:11:33.088Z,99.95
2023-04-23T09:12:33.230Z,99.58
2023-04-23T09:13:33.523Z,99.69
2023-04-23T09:14:34.263Z,99.99
2023-04-23T09:15:33.851Z,99.99
2023-04-23T09:16:34.029Z,99.79
2023-04-23T09:17:34.177Z,99.99
2023-04-23T09:18:34.292Z,99.99
2023-04-23T09:19:34.459Z,99.99
2023-04-23T09:20:34.611Z,99.99
2023-04-23T09:21:35.848Z,99.99
2023-04-23T09:22:35.113Z,99.99
2023-04-23T09:23:35.297Z,99.99
2023-04-23T09:24:35.434Z,99.99
2023-04-23T09:25:35.699Z,99.99
2023-04-23T09:26:35.849Z,99.99
2023-04-23T09:27:36.060Z,99.99
2023-04-23T09:28:36.208Z,99.99
2023-04-23T09:29:36.367Z,99.58
2023-04-23T09:30:36.512Z,99.52
2023-04-23T09:31:36.776Z,99.88
2023-04-23T09:32:36.957Z,99.42
2023-04-23T09:33:37.154Z,99.42
2023-04-23T09:34:37.309Z,99.52
2023-04-23T09:35:39.085Z,99.73
2023-04-23T09:36:37.659Z,99.83
2023-04-23T09:37:37.825Z,99.52
2023-04-23T09:38:38.045Z,99.32
2023-04-23T09:39:38.269Z,99.63
2023-04-23T09:40:38.398Z,99.52
2023-04-23T09:41:40.411Z,99.93
2023-04-23T09:42:38.737Z,99.99
2023-04-23T09:43:38.920Z,99.73
2023-04-23T09:44:39.266Z,99.22
2023-04-23T09:45:39.347Z,99.42
2023-04-23T09:46:39.488Z,99.42
2023-04-23T09:47:39.662Z,98.45
2023-04-23T09:48:39.804Z,98.45
2023-04-23T09:49:40.149Z,98.55
2023-04-23T09:50:40.258Z,98.86
2023-04-23T09:51:40.380Z,98.25
2023-04-23T09:52:40.554Z,98.14
2023-04-23T09:53:41.684Z,97.94
2023-04-23T09:54:41.881Z,98.05
2023-04-23T09:55:41.139Z,98.55
2023-04-23T09:56:41.314Z,98.35
2023-04-23T09:57:41.445Z,98.05
2023-04-23T09:58:41.636Z,98.45
2023-04-23T09:59:49.801Z,98.25
2023-04-23T10:00:43.062Z,98.66
2023-04-23T10:01:42.340Z,99.16
2023-04-23T10:02:42.433Z,99.37
2023-04-23T10:03:42.782Z,99.47
2023-04-23T10:04:43.047Z,99.88
2023-04-23T10:06:50.203Z,99.99
2023-04-23T10:07:44.421Z,99.99
2023-04-23T10:08:43.592Z,99.99
2023-04-23T10:09:44.218Z,99.99
2023-04-23T10:10:57.592Z,99.99
2023-04-23T10:11:45.118Z,99.99
2023-04-23T10:12:54.359Z,99.99
2023-04-23T10:13:45.472Z,99.99
2023-04-23T10:14:44.661Z,99.99
2023-04-23T10:15:44.829Z,99.99
2023-04-23T10:16:49.093Z,99.99
2023-04-23T10:17:45.176Z,99.99
2023-04-23T10:18:45.417Z,99.99
2023-04-23T10:19:45.741Z,99.99
2023-04-23T10:20:45.632Z,99.99
2023-04-23T10:21:52.697Z,99.99
2023-04-23T10:22:47.103Z,99.99
2023-04-23T10:23:46.251Z,99.99
2023-04-23T10:24:48.745Z,99.99
2023-04-23T10:25:46.573Z,99.99
2023-04-23T10:26:46.864Z,99.99
2023-04-23T10:27:53.710Z,99.99
2023-04-23T10:28:48.248Z,99.99
2023-04-23T10:29:47.394Z,99.99
2023-04-23T10:30:47.698Z,99.99
2023-04-23T10:31:47.876Z,99.73
2023-04-23T10:32:48.045Z,99.68
2023-04-23T10:33:58.344Z,99.63
2023-04-23T10:34:49.360Z,98.82
2023-04-23T10:35:48.807Z,97.96
2023-04-23T10:36:48.697Z,97.45
2023-04-23T10:37:48.858Z,97.00
2023-04-23T10:38:57.383Z,96.80
2023-04-23T10:39:50.416Z,97.56
2023-04-23T10:40:49.396Z,95.79
2023-04-23T10:41:49.519Z,94.98
2023-04-23T10:42:49.880Z,94.46
2023-04-23T10:43:49.995Z,94.87
2023-04-23T10:44:59.377Z,95.79
2023-04-23T10:45:51.316Z,94.58
2023-04-23T10:46:50.531Z,94.03
2023-04-23T10:47:50.767Z,92.10
2023-04-23T10:48:50.766Z,91.90
2023-04-23T10:49:51.099Z,91.35
2023-04-23T10:51:08.122Z,90.64
2023-04-23T10:52:51.457Z,87.95
2023-04-23T10:53:51.534Z,87.60
2023-04-23T10:54:51.692Z,87.16
2023-04-23T10:55:51.833Z,86.67
2023-04-23T10:56:51.952Z,87.58
2023-04-23T10:57:52.065Z,85.96
2023-04-23T10:58:52.201Z,85.30
2023-04-23T10:59:52.320Z,85.64
2023-04-23T11:00:52.458Z,85.78
2023-04-23T11:01:52.764Z,87.60
2023-04-23T11:02:52.901Z,88.31
2023-04-23T11:03:53.123Z,88.31
2023-04-23T11:04:53.319Z,88.62
2023-04-23T11:06:01.065Z,87.51
2023-04-23T11:06:53.489Z,88.31
2023-04-23T11:07:53.628Z,86.94
2023-04-23T11:08:53.857Z,87.04
2023-04-23T11:09:53.858Z,88.05
2023-04-23T11:10:54.105Z,89.17
2023-04-23T11:11:54.220Z,88.05
2023-04-23T11:12:54.355Z,88.35
2023-04-23T11:13:54.514Z,88.96
2023-04-23T11:14:54.663Z,88.76
2023-04-23T11:15:54.789Z,90.38
2023-04-23T11:16:55.065Z,88.86
2023-04-23T11:17:55.165Z,88.05
2023-04-23T11:18:55.274Z,87.59
2023-04-23T11:19:55.404Z,88.40
2023-04-23T11:20:55.524Z,88.20
2023-04-23T11:21:55.654Z,88.15
2023-04-23T11:22:55.907Z,86.73
2023-04-23T11:23:56.041Z,87.65
2023-04-23T11:24:56.176Z,88.35
2023-04-23T11:25:56.312Z,88.42
2023-04-23T11:26:56.474Z,87.91
2023-04-23T11:27:56.590Z,87.91
2023-04-23T11:28:56.720Z,87.71
2023-04-23T11:29:58.251Z,86.90
2023-04-23T11:30:56.993Z,86.59
2023-04-23T11:32:57.384Z,87.54
2023-04-23T11:33:57.379Z,87.59
2023-04-23T11:34:57.549Z,87.18
2023-04-23T11:35:57.689Z,87.08
2023-04-23T11:36:57.832Z,85.96
2023-04-23T11:37:57.966Z,85.96
2023-04-23T11:38:58.120Z,85.56
2023-04-23T11:39:58.256Z,84.85
2023-04-23T11:40:58.409Z,86.16
2023-04-23T11:41:58.534Z,85.46
2023-04-23T11:42:58.667Z,84.34
2023-04-23T11:43:58.797Z,85.38
2023-04-23T11:44:58.986Z,81.88
2023-04-23T11:45:59.110Z,79.21
2023-04-23T11:46:59.230Z,75.13
2023-04-23T11:47:59.502Z,73.61
2023-04-23T11:48:59.460Z,72.44
2023-04-23T11:49:59.624Z,69.25
2023-04-23T11:50:59.741Z,70.53
2023-04-23T11:51:59.901Z,70.12
2023-04-23T11:53:00.030Z,68.65
2023-04-23T11:54:00.154Z,67.38
2023-04-23T11:55:00.254Z,69.09
2023-04-23T11:56:00.351Z,66.39
2023-04-23T11:57:00.416Z,67.05
2023-04-23T11:58:00.528Z,62.68
2023-04-23T11:59:00.570Z,62.55
2023-04-23T12:00:00.654Z,63.15
2023-04-23T12:01:00.867Z,59.98
2023-04-23T12:02:00.877Z,62.41
2023-04-23T12:03:01.246Z,62.21
2023-04-23T12:04:01.245Z,62.44
2023-04-23T12:05:01.148Z,63.01
2023-04-23T12:06:01.207Z,62.04
2023-04-23T12:07:02.030Z,63.33
2023-04-23T12:08:01.387Z,64.30
2023-04-23T12:09:01.494Z,63.79
2023-04-23T12:10:01.576Z,65.17
2023-04-23T12:11:01.638Z,65.14
2023-04-23T12:12:01.696Z,61.43
2023-04-23T12:13:01.760Z,61.60
2023-04-23T12:14:01.823Z,62.71
2023-04-23T12:15:01.952Z,58.53
2023-04-23T12:16:02.184Z,61.84
2023-04-23T12:17:02.127Z,60.16
2023-04-23T12:18:02.220Z,62.03
2023-04-23T12:19:02.284Z,61.93
2023-04-23T12:20:02.380Z,60.65
2023-04-23T12:21:02.469Z,62.96
2023-04-23T12:22:02.544Z,60.72
2023-04-23T12:23:02.617Z,60.10
2023-04-23T12:24:02.711Z,60.66
2023-04-23T12:25:02.837Z,59.77
2023-04-23T12:26:02.986Z,58.59
2023-04-23T12:27:03.210Z,58.81
2023-04-23T12:28:03.193Z,57.07
2023-04-23T12:29:03.282Z,56.37
2023-04-23T12:30:06.381Z,56.00
2023-04-23T12:31:03.585Z,57.50
2023-04-23T12:32:03.644Z,57.66
2023-04-23T12:33:03.734Z,57.98
2023-04-23T12:34:03.829Z,59.03
2023-04-23T12:35:03.947Z,58.73
2023-04-23T12:36:03.996Z,59.38
2023-04-23T12:37:04.136Z,56.62
2023-04-23T12:38:04.218Z,55.66
2023-04-23T12:39:04.299Z,55.88
2023-04-23T12:40:04.399Z,54.44
2023-04-23T12:41:04.476Z,52.07
2023-04-23T12:42:04.552Z,52.04
2023-04-23T12:43:04.677Z,49.68
2023-04-23T12:44:04.702Z,51.03
2023-04-23T12:45:04.886Z,52.12
2023-04-23T12:46:04.952Z,53.44
2023-04-23T12:47:05.122Z,52.32
2023-04-23T12:48:05.091Z,52.55
2023-04-23T12:49:05.130Z,53.14
2023-04-23T12:50:05.208Z,51.52
2023-04-23T12:51:05.275Z,51.29
2023-04-23T12:52:05.341Z,50.07
2023-04-23T12:53:05.388Z,51.17
2023-04-23T12:54:05.459Z,52.59
2023-04-23T12:55:05.535Z,49.58
2023-04-23T12:56:05.561Z,49.93
2023-04-23T12:57:05.604Z,47.07
2023-04-23T12:58:05.728Z,46.30